Time;durP1;ratioP1;P1;durP2;ratioP2;P2;SDS_P1;SDS_P2;PMS_P1;PMS_P2;Temp;Humidity;BMP_temperature;BMP_pressure;BME280_temperature;BME280_humidity;BME280_pressure;Samples;Min_cycle;Max_cycle;Signal;HPM_P1;HPM_P2
2022/05/02 00:01:23;;;;;;;6.15;4.53;;;;;;;12.86;58.59;99282.91;4995861;28;20034;-84
2022/05/02 00:03:48;;;;;;;7.90;5.35;;;;;;;12.99;58.27;99279.81;5004674;28;20038;-84
2022/05/02 00:06:13;;;;;;;11.55;5.35;;;;;;;12.95;58.09;99268.00;4993530;28;20470;-84
2022/05/02 00:08:39;;;;;;;9.60;5.55;;;;;;;12.89;58.27;99273.56;4976302;28;20033;-84
2022/05/02 00:11:04;;;;;;;6.43;5.50;;;;;;;12.83;58.82;99264.63;4993165;28;20441;-84
2022/05/02 00:13:29;;;;;;;7.35;5.55;;;;;;;12.88;58.17;99269.25;4990950;28;20524;-85
2022/05/02 00:15:55;;;;;;;10.90;4.97;;;;;;;12.84;58.49;99258.22;5003511;28;20029;-85
2022/05/02 00:18:20;;;;;;;7.82;5.03;;;;;;;12.76;58.20;99262.16;4988687;28;20033;-85
2022/05/02 00:20:46;;;;;;;7.35;5.15;;;;;;;12.93;58.33;99270.09;4993413;28;20029;-85
2022/05/02 00:23:11;;;;;;;6.00;5.25;;;;;;;12.86;58.36;99264.16;5006465;28;20550;-85
2022/05/02 00:25:37;;;;;;;6.22;5.53;;;;;;;12.89;58.19;99263.63;4976767;28;20033;-85
2022/05/02 00:28:03;;;;;;;8.35;5.60;;;;;;;12.79;58.34;99250.13;5024106;28;20471;-85
2022/05/02 00:30:29;;;;;;;8.65;5.65;;;;;;;12.88;58.48;99255.84;4995317;28;20472;-85
2022/05/02 00:32:56;;;;;;;9.95;6.13;;;;;;;12.81;58.08;99253.38;5006458;28;20095;-85
2022/05/02 00:35:22;;;;;;;7.47;5.20;;;;;;;12.79;58.12;99266.22;4983413;28;21497;-85
2022/05/02 00:37:47;;;;;;;7.05;4.63;;;;;;;12.88;58.26;99253.97;5022763;28;20028;-85
2022/05/02 00:40:14;;;;;;;8.48;5.78;;;;;;;12.87;58.10;99254.22;4992118;28;20041;-85
2022/05/02 00:42:43;;;;;;;6.93;5.50;;;;;;;12.75;58.50;99247.13;5024925;28;20041;-85
2022/05/02 00:45:10;;;;;;;7.40;5.03;;;;;;;12.71;58.98;99251.38;5002120;28;20064;-84
2022/05/02 00:47:36;;;;;;;8.70;5.90;;;;;;;12.68;58.64;99233.16;4991969;28;20040;-85
2022/05/02 00:50:07;;;;;;;7.43;5.97;;;;;;;12.68;58.50;99233.16;4989402;28;20033;-85
2022/05/02 00:52:32;;;;;;;7.00;5.75;;;;;;;12.74;58.80;99248.22;5023661;28;20702;-85
2022/05/02 00:55:00;;;;;;;6.38;5.00;;;;;;;12.65;59.17;99236.31;5010073;28;20025;-85
2022/05/02 00:57:25;;;;;;;11.95;6.75;;;;;;;12.71;58.62;99240.66;5003640;28;20021;-85
2022/05/02 00:59:50;;;;;;;7.25;5.22;;;;;;;12.68;58.66;99251.91;5004732;28;20041;-84
2022/05/02 01:02:16;;;;;;;5.95;4.93;;;;;;;12.61;58.97;99243.25;5008091;28;20105;-85
2022/05/02 01:04:42;;;;;;;8.40;6.07;;;;;;;12.63;59.32;99243.00;5004479;28;20030;-84
2022/05/02 01:07:11;;;;;;;9.55;5.65;;;;;;;12.59;59.33;99252.59;5009569;28;20029;-85
2022/05/02 01:09:49;;;;;;;7.00;6.13;;;;;;;12.64;59.06;99248.13;5001066;28;20056;-84
2022/05/02 01:12:21;;;;;;;8.63;5.93;;;;;;;12.62;59.20;99250.22;5025577;28;20491;-85
2022/05/02 01:14:50;;;;;;;7.38;5.47;;;;;;;12.68;58.94;99256.44;5025380;28;20111;-85
2022/05/02 01:17:15;;;;;;;5.68;5.03;;;;;;;12.59;59.02;99247.25;5011805;28;20037;-85
2022/05/02 01:19:41;;;;;;;10.02;5.70;;;;;;;12.67;58.93;99250.28;4998309;28;20036;-85
2022/05/02 01:22:07;;;;;;;7.32;5.68;;;;;;;12.69;59.03;99258.03;4989585;28;20032;-85
2022/05/02 01:24:44;;;;;;;11.77;6.25;;;;;;;12.67;59.23;99244.91;4991031;28;20450;-85
2022/05/02 01:27:11;;;;;;;10.20;6.43;;;;;;;12.55;59.54;99249.63;5008384;28;20493;-85
2022/05/02 01:29:37;;;;;;;7.97;5.45;;;;;;;12.55;59.55;99248.81;4989935;28;20037;-85
2022/05/02 01:32:09;;;;;;;6.60;5.50;;;;;;;12.55;59.21;99246.94;5005100;28;20111;-85
2022/05/02 01:34:35;;;;;;;11.40;5.93;;;;;;;12.57;59.89;99242.16;4991977;28;20049;-85
2022/05/02 01:37:02;;;;;;;8.60;5.53;;;;;;;12.58;59.50;99243.75;5003973;28;20477;-85
2022/05/02 01:39:28;;;;;;;8.75;5.65;;;;;;;12.55;59.31;99244.25;4989914;28;20053;-85
2022/05/02 01:41:54;;;;;;;11.82;6.38;;;;;;;12.52;59.31;99238.59;5017968;28;20445;-85
2022/05/02 01:44:19;;;;;;;7.22;6.38;;;;;;;12.50;59.69;99230.81;4991903;28;20124;-85
2022/05/02 01:46:44;;;;;;;11.98;6.15;;;;;;;12.49;59.64;99225.72;4978351;28;20102;-85
2022/05/02 01:49:10;;;;;;;7.78;5.75;;;;;;;12.51;59.91;99229.78;4974068;28;20045;-85
2022/05/02 01:51:35;;;;;;;12.32;6.30;;;;;;;12.47;60.30;99235.88;5006165;28;20046;-85
2022/05/02 01:54:01;;;;;;;9.60;6.22;;;;;;;12.53;60.11;99230.31;5023368;28;20032;-85
2022/05/02 01:56:26;;;;;;;8.48;6.05;;;;;;;12.50;60.17;99230.81;4974301;28;20727;-85
2022/05/02 01:58:52;;;;;;;11.75;7.10;;;;;;;12.46;59.98;99223.53;5023743;28;20033;-85
2022/05/02 02:01:18;;;;;;;9.73;6.40;;;;;;;12.43;59.71;99221.34;5007524;28;20029;-85
2022/05/02 02:03:43;;;;;;;11.15;5.72;;;;;;;12.52;60.33;99227.88;5008912;28;20029;-85
2022/05/02 02:06:08;;;;;;;9.93;6.75;;;;;;;12.49;59.74;99220.38;4992404;28;20037;-86
2022/05/02 02:08:35;;;;;;;10.00;6.55;;;;;;;12.48;60.35;99219.56;5022761;28;20466;-85
2022/05/02 02:11:03;;;;;;;11.65;6.45;;;;;;;12.45;60.23;99206.66;4989592;28;20041;-85
2022/05/02 02:13:30;;;;;;;8.13;6.55;;;;;;;12.52;60.21;99217.16;5003522;28;20041;-85
2022/05/02 02:15:56;;;;;;;8.55;6.43;;;;;;;12.49;60.45;99223.03;5024710;28;20035;-85
2022/05/02 02:18:21;;;;;;;11.43;6.75;;;;;;;12.42;60.22;99219.75;5007785;28;20021;-85
2022/05/02 02:20:48;;;;;;;11.65;6.07;;;;;;;12.41;60.37;99215.44;5011068;28;20021;-84
2022/05/02 02:23:15;;;;;;;10.75;6.40;;;;;;;12.54;60.21;99220.41;5019433;28;20017;-85
2022/05/02 02:25:41;;;;;;;8.32;6.45;;;;;;;12.49;60.18;99217.69;5025914;28;20030;-85
2022/05/02 02:28:07;;;;;;;7.50;6.00;;;;;;;12.36;60.30;99207.38;5000329;28;20477;-85
2022/05/02 02:30:32;;;;;;;7.45;5.90;;;;;;;12.44;60.54;99217.63;5003876;28;20108;-85
2022/05/02 02:32:58;;;;;;;11.02;6.07;;;;;;;12.38;60.45;99216.78;5024513;28;20473;-84
2022/05/02 02:35:24;;;;;;;8.73;6.82;;;;;;;12.44;60.46;99212.28;5007963;28;20048;-85
2022/05/02 02:37:50;;;;;;;9.88;7.18;;;;;;;12.42;60.83;99211.72;5010694;28;20025;-84
2022/05/02 02:40:16;;;;;;;7.13;6.00;;;;;;;12.36;60.73;99205.47;5006021;28;20056;-85
2022/05/02 02:42:41;;;;;;;7.50;6.13;;;;;;;12.39;60.65;99206.84;5005623;28;20030;-84
2022/05/02 02:45:07;;;;;;;7.75;5.95;;;;;;;12.44;60.19;99196.22;4990324;28;20029;-85
2022/05/02 02:47:32;;;;;;;11.15;6.18;;;;;;;12.34;60.13;99196.91;5004361;28;20529;-84
2022/05/02 02:49:58;;;;;;;8.45;6.40;;;;;;;12.36;60.64;99207.38;5000741;28;20038;-84
2022/05/02 02:52:23;;;;;;;8.18;6.22;;;;;;;12.33;60.63;99203.31;5023963;28;20301;-84
2022/05/02 02:54:48;;;;;;;8.23;6.50;;;;;;;12.37;60.84;99187.56;4991312;28;20033;-85
2022/05/02 02:57:13;;;;;;;11.00;6.82;;;;;;;12.38;60.66;99194.53;4986623;28;20040;-84
2022/05/02 02:59:39;;;;;;;8.70;7.00;;;;;;;12.36;60.89;99194.00;4990079;28;20038;-84
2022/05/02 03:02:06;;;;;;;11.43;6.88;;;;;;;12.34;60.78;99182.72;5001937;28;20057;-84
2022/05/02 03:07:16;;;;;;;10.32;6.35;;;;;;;12.32;60.90;99179.50;5022552;28;20509;-84
2022/05/02 03:09:41;;;;;;;10.45;6.15;;;;;;;12.38;61.15;99183.84;5000124;28;20026;-84
2022/05/02 03:12:07;;;;;;;9.20;5.93;;;;;;;12.38;61.34;99189.19;5002772;28;20463;-84
2022/05/02 03:14:33;;;;;;;12.20;7.20;;;;;;;12.33;61.01;99179.22;5001478;28;20073;-84
2022/05/02 03:16:58;;;;;;;9.68;6.68;;;;;;;12.31;61.21;99172.50;5020465;28;20076;-84
2022/05/02 03:19:23;;;;;;;8.10;6.53;;;;;;;12.39;61.14;99169.38;4986160;28;20037;-85
2022/05/02 03:21:48;;;;;;;6.75;6.07;;;;;;;12.29;61.56;99166.59;4989179;28;20481;-84
2022/05/02 03:24:14;;;;;;;8.23;6.30;;;;;;;12.28;61.62;99173.00;5000215;28;20029;-84
2022/05/02 03:26:39;;;;;;;8.32;6.63;;;;;;;12.28;61.21;99170.31;4988898;28;20041;-84
2022/05/02 03:29:04;;;;;;;11.48;7.25;;;;;;;12.32;60.93;99174.13;5003626;28;20120;-84
2022/05/02 03:31:29;;;;;;;9.63;6.97;;;;;;;12.19;61.36;99175.31;5006676;28;20102;-84
2022/05/02 03:33:55;;;;;;;9.55;7.10;;;;;;;12.24;61.19;99174.56;4991731;28;20034;-85
2022/05/02 03:36:20;;;;;;;8.93;7.22;;;;;;;12.28;61.59;99171.13;4975856;28;20179;-84
2022/05/02 03:38:46;;;;;;;9.23;6.88;;;;;;;12.19;60.97;99153.91;5005009;28;20061;-84
2022/05/02 03:41:11;;;;;;;8.70;6.75;;;;;;;12.16;61.37;99158.97;4990926;28;20033;-84
2022/05/02 03:43:36;;;;;;;8.70;6.70;;;;;;;12.20;61.50;99165.44;4988224;28;20493;-84
2022/05/02 03:46:02;;;;;;;12.20;6.82;;;;;;;12.19;61.49;99153.13;5007076;28;20036;-84
2022/05/02 03:48:28;;;;;;;7.82;6.28;;;;;;;12.28;60.94;99168.47;5005733;28;20452;-84
2022/05/02 03:50:53;;;;;;;9.35;7.18;;;;;;;12.18;61.40;99162.19;5003093;28;20056;-85
2022/05/02 03:53:20;;;;;;;13.07;7.03;;;;;;;12.13;61.89;99168.28;4993630;28;20042;-85
2022/05/02 03:55:46;;;;;;;9.90;7.15;;;;;;;12.17;61.59;99164.06;5000297;28;20480;-85
2022/05/02 03:58:12;;;;;;;9.40;6.75;;;;;;;12.08;61.98;99160.19;5030398;28;20164;-85
2022/05/02 04:00:38;;;;;;;9.05;6.80;;;;;;;11.98;62.17;99163.59;5022900;28;20029;-85
2022/05/02 04:03:03;;;;;;;8.65;6.63;;;;;;;12.04;62.20;99167.13;5008932;28;20037;-84
2022/05/02 04:05:29;;;;;;;8.80;7.22;;;;;;;12.16;61.98;99170.47;4990234;28;20038;-85
2022/05/02 04:07:54;;;;;;;9.50;6.82;;;;;;;12.11;61.71;99162.38;5004088;28;20041;-85
2022/05/02 04:10:19;;;;;;;9.88;7.38;;;;;;;12.12;61.50;99164.03;5005796;28;20140;-85
2022/05/02 04:12:45;;;;;;;11.18;7.53;;;;;;;12.04;61.62;99162.56;5004582;28;20029;-85
2022/05/02 04:15:11;;;;;;;11.18;7.13;;;;;;;11.92;62.23;99169.94;4971283;28;20032;-85
2022/05/02 04:17:37;;;;;;;9.65;8.40;;;;;;;11.85;62.41;99158.63;5007021;28;20385;-84
2022/05/02 04:20:03;;;;;;;9.07;7.13;;;;;;;11.91;61.98;99167.50;5014078;28;20585;-85
2022/05/02 04:22:29;;;;;;;8.68;6.70;;;;;;;11.87;62.25;99155.69;5020437;28;20382;-84
2022/05/02 04:24:54;;;;;;;9.13;7.32;;;;;;;11.91;62.13;99168.31;4990571;28;20029;-84
2022/05/02 04:27:19;;;;;;;8.00;6.53;;;;;;;11.96;61.80;99165.69;5010207;28;20508;-84
2022/05/02 04:29:45;;;;;;;7.97;6.40;;;;;;;11.94;62.14;99167.00;5004524;28;22182;-84
2022/05/02 04:32:10;;;;;;;9.68;7.88;;;;;;;12.11;61.67;99169.59;4993086;28;20060;-84
2022/05/02 04:34:35;;;;;;;9.90;6.93;;;;;;;12.02;61.59;99163.88;4983356;28;20037;-85
2022/05/02 04:37:01;;;;;;;9.05;7.18;;;;;;;11.95;62.07;99164.06;4990551;28;20481;-86
2022/05/02 04:39:26;;;;;;;11.73;7.50;;;;;;;11.93;62.13;99163.50;4989542;28;20034;-84
2022/05/02 04:41:51;;;;;;;9.18;6.72;;;;;;;11.98;62.29;99168.13;5006881;28;20116;-85
2022/05/02 04:44:17;;;;;;;13.88;8.70;;;;;;;11.94;61.98;99167.81;4988142;28;20045;-84
2022/05/02 04:46:42;;;;;;;12.25;7.18;;;;;;;12.06;62.25;99161.53;4989024;28;20107;-84
2022/05/02 04:49:07;;;;;;;9.60;7.60;;;;;;;12.00;61.82;99169.50;5000073;28;20032;-83
2022/05/02 04:51:33;;;;;;;7.95;7.00;;;;;;;12.05;62.64;99168.75;5008234;28;20041;-84
2022/05/02 04:53:58;;;;;;;8.23;6.85;;;;;;;11.92;62.71;99167.25;5007283;28;20036;-84
2022/05/02 04:56:24;;;;;;;10.98;7.18;;;;;;;11.92;62.60;99172.63;5007214;28;20569;-84
2022/05/02 04:58:49;;;;;;;15.52;9.20;;;;;;;11.93;63.22;99166.19;4975640;28;20040;-85
2022/05/02 05:01:15;;;;;;;16.45;8.32;;;;;;;11.64;65.10;99172.72;4990997;28;20385;-84
2022/05/02 05:03:40;;;;;;;16.73;10.50;;;;;;;11.63;65.97;99170.31;4992911;28;20029;-84
2022/05/02 05:06:06;;;;;;;12.38;9.13;;;;;;;11.71;64.75;99165.38;5006894;28;20056;-84
2022/05/02 05:08:31;;;;;;;13.75;9.13;;;;;;;11.78;63.86;99171.34;5005020;28;20048;-84
2022/05/02 05:11:15;;;;;;;13.02;9.07;;;;;;;11.80;63.92;99171.91;5016793;28;20033;-84
2022/05/02 05:17:22;;;;;;;14.27;8.60;;;;;;;11.92;64.01;99172.63;5029951;28;20044;-86
2022/05/02 05:20:06;;;;;;;11.60;8.02;;;;;;;12.00;63.74;99172.16;5009380;28;20131;-86
2022/05/02 05:22:49;;;;;;;10.32;7.78;;;;;;;12.00;63.88;99174.84;5036249;28;20025;-85
2022/05/02 05:25:27;;;;;;;9.45;7.43;;;;;;;12.08;63.66;99162.88;5012355;28;20036;-85
2022/05/02 05:28:15;;;;;;;11.57;7.57;;;;;;;12.16;63.69;99169.66;5012586;28;20129;-85
2022/05/02 05:30:45;;;;;;;7.47;6.70;;;;;;;12.16;63.33;99161.63;5011009;28;20382;-85
2022/05/02 05:33:50;;;;;;;9.93;6.93;;;;;;;12.27;63.08;99164.19;5009257;28;20025;-84
2022/05/02 05:37:07;;;;;;;11.23;7.65;;;;;;;12.33;62.94;99168.53;5009866;28;20033;-84
2022/05/02 05:39:41;;;;;;;11.02;6.57;;;;;;;12.33;63.15;99165.03;4983259;28;20486;-84
2022/05/02 05:42:35;;;;;;;10.15;7.88;;;;;;;12.39;62.88;99156.00;5005741;28;20029;-84
2022/05/02 05:45:10;;;;;;;10.75;7.82;;;;;;;12.41;63.45;99170.75;5007256;28;20025;-84
2022/05/02 05:47:47;;;;;;;10.02;7.55;;;;;;;12.42;62.80;99164.34;5026444;28;20127;-84
2022/05/02 05:50:24;;;;;;;9.98;7.03;;;;;;;12.44;62.63;99156.06;5013549;28;20043;-84
2022/05/02 05:53:08;;;;;;;10.05;7.38;;;;;;;12.51;62.65;99165.50;5008837;28;20068;-84
2022/05/02 05:55:45;;;;;;;9.48;7.00;;;;;;;12.53;62.33;99166.06;5013839;28;20025;-84
2022/05/02 05:58:56;;;;;;;12.05;6.95;;;;;;;12.51;62.86;99170.06;5025201;28;20064;-84
2022/05/02 06:01:36;;;;;;;10.27;6.63;;;;;;;12.51;62.83;99154.81;5011154;28;20053;-84
2022/05/02 06:04:07;;;;;;;11.25;7.47;;;;;;;12.53;62.86;99165.25;5005944;28;20021;-84
2022/05/02 06:06:35;;;;;;;9.95;7.50;;;;;;;12.55;62.59;99168.47;4981661;28;20056;-84
2022/05/02 06:09:01;;;;;;;9.48;7.38;;;;;;;12.50;62.95;99157.72;5010336;28;20033;-84
2022/05/02 06:11:28;;;;;;;15.23;6.53;;;;;;;12.51;62.89;99167.38;4996148;28;20103;-84
2022/05/02 06:13:55;;;;;;;8.70;7.03;;;;;;;12.58;63.06;99173.34;4989382;28;20029;-84
2022/05/02 06:19:13;;;;;;;12.70;7.45;;;;;;;12.65;62.52;99169.38;5000437;28;20063;-85
2022/05/02 06:21:46;;;;;;;10.88;7.72;;;;;;;12.61;62.42;99170.94;5026813;28;20083;-84
2022/05/02 06:24:13;;;;;;;13.52;6.53;;;;;;;12.61;62.73;99172.81;5029285;28;20045;-84
2022/05/02 06:26:40;;;;;;;9.23;6.80;;;;;;;12.66;62.56;99176.38;5012492;28;20038;-84
2022/05/02 06:29:10;;;;;;;7.90;6.88;;;;;;;12.73;62.67;99174.25;5006612;28;20083;-84
2022/05/02 06:31:37;;;;;;;8.50;6.28;;;;;;;12.77;62.69;99170.03;5029046;28;20035;-84
2022/05/02 06:34:04;;;;;;;8.52;6.45;;;;;;;12.80;62.54;99174.88;5009982;28;20021;-84
2022/05/02 06:36:46;;;;;;;8.45;6.55;;;;;;;12.91;62.40;99172.28;4992157;28;20029;-84
2022/05/02 06:39:39;;;;;;;8.90;6.43;;;;;;;12.91;61.69;99165.03;5011487;28;20542;-84
2022/05/02 06:42:20;;;;;;;8.90;5.82;;;;;;;13.00;62.03;99170.75;5023847;28;20460;-84
2022/05/02 06:45:17;;;;;;;11.10;6.95;;;;;;;13.04;62.16;99174.53;5029119;28;20025;-84
2022/05/02 06:47:55;;;;;;;10.13;6.60;;;;;;;13.09;61.92;99169.25;5016312;28;20041;-84
2022/05/02 06:50:23;;;;;;;7.85;6.45;;;;;;;13.13;62.04;99165.78;5008417;28;20544;-84
2022/05/02 06:53:10;;;;;;;9.43;6.70;;;;;;;13.20;61.46;99170.94;5015560;28;20628;-84
2022/05/02 06:55:35;;;;;;;8.85;6.70;;;;;;;13.15;62.18;99169.03;5011402;28;20029;-84
2022/05/02 06:58:32;;;;;;;8.43;7.07;;;;;;;13.24;62.04;99170.16;5009226;28;20029;-84
2022/05/02 07:01:11;;;;;;;9.02;7.05;;;;;;;13.37;62.12;99166.22;5005277;28;20278;-84
2022/05/02 07:03:37;;;;;;;9.43;6.72;;;;;;;13.39;61.31;99170.25;5032313;28;20116;-84
2022/05/02 07:06:15;;;;;;;8.97;6.40;;;;;;;13.53;61.14;99170.63;5012849;28;20137;-84
2022/05/02 07:09:01;;;;;;;9.75;7.30;;;;;;;13.49;61.10;99159.63;5010115;28;20279;-84
2022/05/02 07:11:43;;;;;;;9.23;6.45;;;;;;;13.52;61.37;99159.06;5016826;28;20393;-83
2022/05/02 07:15:05;;;;;;;11.18;7.05;;;;;;;13.51;61.52;99164.72;5025672;28;20026;-84
2022/05/02 07:17:42;;;;;;;8.55;7.07;;;;;;;13.53;61.65;99166.06;4968255;28;20447;-84
2022/05/02 07:20:35;;;;;;;10.13;7.90;;;;;;;13.64;61.27;99163.44;5026563;28;20026;-84
2022/05/02 07:23:18;;;;;;;12.15;7.53;;;;;;;13.72;61.26;99161.06;5007195;28;20545;-84
2022/05/02 07:25:50;;;;;;;10.52;7.03;;;;;;;13.75;61.05;99154.38;5010755;28;20029;-84
2022/05/02 07:28:25;;;;;;;9.60;6.93;;;;;;;13.81;61.26;99164.06;5010415;28;20036;-84
2022/05/02 07:30:55;;;;;;;7.93;7.05;;;;;;;13.87;60.78;99158.44;5010883;28;20048;-84
2022/05/02 07:33:20;;;;;;;10.25;6.97;;;;;;;13.92;60.73;99158.47;5031318;28;20029;-84
2022/05/02 07:35:47;;;;;;;10.50;6.10;;;;;;;14.04;60.14;99160.94;4999225;28;20047;-84
2022/05/02 07:38:15;;;;;;;10.52;7.47;;;;;;;14.09;60.04;99148.34;4995114;28;20030;-84
2022/05/02 07:41:22;;;;;;;8.02;6.60;;;;;;;14.17;59.90;99150.53;5027631;28;20496;-84
2022/05/02 07:43:33;;;;;;;10.07;7.63;;;;;;;14.12;60.41;99155.06;5032040;28;20219;-84
2022/05/02 07:46:02;;;;;;;10.98;7.03;;;;;;;14.06;60.53;99148.88;5014304;28;20210;-84
2022/05/02 07:48:31;;;;;;;10.07;7.30;;;;;;;14.19;60.21;99148.38;5010801;28;20309;-84
2022/05/02 07:50:57;;;;;;;9.93;7.65;;;;;;;14.18;60.40;99152.13;4992860;28;20036;-84
2022/05/02 07:53:25;;;;;;;10.65;7.57;;;;;;;14.28;60.24;99152.16;5032073;28;20055;-84
2022/05/02 07:55:54;;;;;;;11.88;7.60;;;;;;;14.33;59.98;99148.69;5010625;28;20079;-84
2022/05/02 07:58:24;;;;;;;14.05;7.95;;;;;;;14.51;59.55;99147.41;5011649;28;20090;-84
2022/05/02 08:00:49;;;;;;;16.20;8.70;;;;;;;14.35;60.12;99140.41;5005725;28;20095;-84
2022/05/02 08:03:20;;;;;;;13.82;8.57;;;;;;;14.46;60.09;99148.19;5026397;28;20022;-84
2022/05/02 08:05:50;;;;;;;10.95;7.82;;;;;;;14.49;59.76;99155.72;5013612;28;20017;-84
2022/05/02 08:08:31;;;;;;;11.18;7.13;;;;;;;14.56;59.55;99150.91;5010094;28;20033;-84
2022/05/02 08:11:29;;;;;;;9.27;6.70;;;;;;;14.64;59.17;99161.13;5015701;28;20079;-84
2022/05/02 08:14:09;;;;;;;9.93;6.82;;;;;;;14.71;59.13;99158.16;5013495;28;20042;-84
2022/05/02 08:16:40;;;;;;;8.77;6.65;;;;;;;14.80;59.27;99146.63;5013843;28;20045;-84
2022/05/02 08:19:14;;;;;;;12.75;7.55;;;;;;;14.86;59.15;99150.13;5013703;28;20067;-84
2022/05/02 08:21:47;;;;;;;7.95;6.07;;;;;;;14.89;59.03;99152.28;5004936;28;20055;-84
2022/05/02 08:27:48;;;;;;;9.02;7.28;;;;;;;15.08;58.11;99160.59;5014632;28;20040;-85
2022/05/02 08:30:24;;;;;;;7.10;5.50;;;;;;;15.16;58.04;99154.69;5013128;28;20066;-84
2022/05/02 08:33:05;;;;;;;6.95;6.03;;;;;;;15.19;57.73;99148.75;5005809;28;20418;-84
2022/05/02 08:35:55;;;;;;;9.70;5.80;;;;;;;15.21;57.48;99151.97;5014390;28;20123;-84
2022/05/02 08:38:23;;;;;;;8.60;5.60;;;;;;;15.24;57.56;99151.44;5012666;28;20071;-84
2022/05/02 08:41:26;;;;;;;7.43;5.85;;;;;;;15.35;57.42;99151.19;5025883;28;20040;-84
2022/05/02 08:44:04;;;;;;;9.55;6.85;;;;;;;15.46;57.47;99152.00;5008482;28;20029;-84
2022/05/02 08:47:00;;;;;;;13.20;6.10;;;;;;;15.47;57.31;99148.19;5026819;28;20029;-84
2022/05/02 08:49:50;;;;;;;9.07;6.55;;;;;;;15.51;57.39;99139.31;5028888;28;20021;-84
2022/05/02 08:52:54;;;;;;;7.55;5.70;;;;;;;15.64;57.08;99146.00;5028272;28;20029;-84
2022/05/02 08:55:33;;;;;;;7.57;5.88;;;;;;;15.65;56.89;99144.94;5023413;28;20099;-84
2022/05/02 08:58:23;;;;;;;8.15;6.00;;;;;;;15.75;56.90;99142.19;5021770;28;20085;-84
2022/05/02 09:01:29;;;;;;;10.10;6.80;;;;;;;15.85;56.63;99127.91;5023701;28;20029;-84
2022/05/02 09:04:19;;;;;;;8.75;6.20;;;;;;;15.94;56.88;99137.84;5024389;28;20079;-84
2022/05/02 09:07:20;;;;;;;9.70;5.80;;;;;;;16.01;56.25;99138.31;5010753;28;20108;-84
2022/05/02 09:10:14;;;;;;;10.30;6.30;;;;;;;16.13;56.03;99138.00;5027843;28;20044;-84
2022/05/02 09:12:42;;;;;;;8.90;6.15;;;;;;;16.09;56.64;99132.38;5029085;28;20440;-84
2022/05/02 09:15:57;;;;;;;8.57;6.20;;;;;;;16.22;55.95;99131.78;5012991;28;20029;-84
2022/05/02 09:18:47;;;;;;;10.30;5.43;;;;;;;16.28;56.58;99127.97;5004961;28;20063;-85
2022/05/02 09:21:42;;;;;;;11.95;6.60;;;;;;;16.36;55.71;99135.44;5010660;28;20061;-84
2022/05/02 09:24:36;;;;;;;8.25;6.05;;;;;;;16.40;55.94;99124.94;5009858;28;20026;-84
2022/05/02 09:27:31;;;;;;;8.60;5.93;;;;;;;16.48;56.25;99129.72;5023912;28;20037;-84
2022/05/02 09:30:12;;;;;;;10.75;6.45;;;;;;;16.52;56.01;99119.22;5001561;28;20478;-84
2022/05/02 09:32:56;;;;;;;7.97;6.35;;;;;;;16.65;55.74;99121.28;5010416;28;20037;-84
2022/05/02 09:35:30;;;;;;;7.55;6.47;;;;;;;16.72;55.80;99122.56;5028272;28;20549;-84
2022/05/02 09:38:10;;;;;;;7.72;6.65;;;;;;;16.83;56.03;99126.81;5003087;28;20034;-84
2022/05/02 09:40:41;;;;;;;9.77;6.50;;;;;;;16.86;55.75;99117.34;5009006;28;20393;-84
2022/05/02 09:49:33;;;;;;;8.90;5.78;;;;;;;17.05;55.87;99112.88;5008832;28;20049;-84
2022/05/02 09:49:33;;;;;;;8.35;6.65;;;;;;;17.20;55.42;99110.84;5021957;28;20044;-84
2022/05/02 09:52:18;;;;;;;9.95;6.93;;;;;;;17.24;55.31;99106.47;5021111;28;20047;-84
2022/05/02 09:58:20;;;;;;;7.25;5.75;;;;;;;17.39;54.74;99099.28;5013933;28;20037;-84
2022/05/02 10:01:11;;;;;;;10.02;6.30;;;;;;;17.49;54.97;99099.19;5012947;28;20029;-84
2022/05/02 10:03:46;;;;;;;5.40;4.90;;;;;;;17.56;54.73;99100.47;5013091;28;20033;-84
2022/05/02 10:06:22;;;;;;;9.85;5.95;;;;;;;17.63;54.39;99092.84;5013348;28;20045;-84
2022/05/02 10:08:47;;;;;;;;;;;;;;;17.74;54.71;99088.94;5028820;28;20108;-84
2022/05/02 10:11:27;;;;;;;10.17;6.03;;;;;;;17.80;54.62;99089.69;5010708;28;20004;-84
2022/05/02 10:14:27;;;;;;;8.32;5.97;;;;;;;17.85;54.00;99084.19;5007266;28;20478;-85
2022/05/02 10:17:12;;;;;;;10.27;5.88;;;;;;;17.96;54.05;99078.38;4982152;28;20037;-84
2022/05/02 10:20:05;;;;;;;8.38;7.47;;;;;;;18.03;53.27;99069.94;5011477;28;20040;-84
2022/05/02 10:22:30;;;;;;;10.20;6.70;;;;;;;18.14;52.89;99079.50;5027093;28;20018;-84
2022/05/02 10:25:14;;;;;;;7.50;6.18;;;;;;;18.31;53.11;99073.56;5009881;28;20511;-84
2022/05/02 10:27:58;;;;;;;7.10;6.28;;;;;;;18.39;53.18;99076.41;5010842;28;20029;-84
2022/05/02 10:30:33;;;;;;;10.13;6.65;;;;;;;18.46;52.67;99067.97;5025757;28;20029;-84
2022/05/02 10:33:05;;;;;;;8.40;6.65;;;;;;;18.58;52.34;99068.31;5005799;28;20017;-84
2022/05/02 10:35:34;;;;;;;9.45;4.97;;;;;;;18.61;52.53;99067.72;5027588;28;20461;-84
2022/05/02 10:38:02;;;;;;;8.77;7.53;;;;;;;18.70;51.67;99055.94;4979140;28;20025;-84
2022/05/02 10:40:37;;;;;;;8.65;5.78;;;;;;;18.85;52.31;99060.28;4996497;28;20029;-84
2022/05/02 10:43:08;;;;;;;6.83;4.87;;;;;;;18.89;52.13;99063.22;5010028;28;20040;-84
2022/05/02 10:45:38;;;;;;;6.70;5.43;;;;;;;18.93;51.79;99046.09;5007948;28;20401;-84
2022/05/02 10:48:21;;;;;;;6.60;5.22;;;;;;;19.02;51.98;99044.31;5011842;28;20477;-84
2022/05/02 10:51:04;;;;;;;7.25;5.57;;;;;;;19.09;51.64;99036.56;5030073;28;20360;-84
2022/05/02 10:53:51;;;;;;;10.18;6.20;;;;;;;19.25;51.07;99043.31;5029636;28;20029;-84
2022/05/02 10:56:22;;;;;;;;;;;;;;;19.36;51.28;99043.94;5012025;28;20078;-82
2022/05/02 10:58:48;;;;;;;8.20;5.57;;;;;;;19.39;51.42;99038.75;5018249;28;19936;-82
2022/05/02 11:01:32;;;;;;;8.52;5.90;;;;;;;19.47;50.69;99028.31;5007711;28;20065;-82
2022/05/02 11:04:13;;;;;;;9.35;5.20;;;;;;;19.58;50.57;99029.69;5022910;28;20465;-82
2022/05/02 11:07:16;;;;;;;9.27;5.03;;;;;;;19.69;50.73;99028.38;5028638;28;20080;-82
2022/05/02 11:09:56;;;;;;;9.45;5.85;;;;;;;19.77;50.37;99024.97;5004100;28;20026;-82
2022/05/02 11:12:27;;;;;;;7.78;5.35;;;;;;;19.78;50.40;99027.38;5027899;28;20113;-82
2022/05/02 11:15:05;;;;;;;6.63;5.65;;;;;;;19.93;49.94;99015.41;5000128;28;20550;-82
2022/05/02 11:21:40;;;;;;;9.73;6.00;;;;;;;20.12;49.24;99016.03;4943073;29;20549;-82
2022/05/02 11:24:25;;;;;;;10.07;5.38;;;;;;;20.28;49.00;99019.22;4932125;29;20122;-82
2022/05/02 11:27:19;;;;;;;11.13;5.45;;;;;;;20.36;49.25;99011.16;5025371;28;20046;-82
2022/05/02 11:30:02;;;;;;;8.70;5.43;;;;;;;20.54;48.77;99015.59;5011342;28;20367;-82
2022/05/02 11:32:37;;;;;;;8.30;5.95;;;;;;;20.62;48.98;99014.84;5027876;28;20389;-82
2022/05/02 11:35:29;;;;;;;6.60;5.18;;;;;;;20.68;48.91;99013.63;5028552;28;20500;-82
2022/05/02 11:38:01;;;;;;;6.97;5.03;;;;;;;20.79;48.70;99009.50;5022087;28;20025;-82
2022/05/02 11:40:41;;;;;;;6.47;5.00;;;;;;;20.93;48.64;99004.00;5026122;28;20033;-82
2022/05/02 11:43:08;;;;;;;7.30;5.72;;;;;;;20.92;48.55;99005.91;5027920;28;20026;-82
2022/05/02 11:45:47;;;;;;;7.95;5.07;;;;;;;21.20;48.04;98998.44;5011799;28;20088;-82
2022/05/02 11:48:21;;;;;;;9.35;5.53;;;;;;;21.35;48.04;99006.13;5023659;28;20443;-82
2022/05/02 11:50:48;;;;;;;6.70;4.72;;;;;;;21.51;47.48;98990.22;5015670;28;20041;-82
2022/05/02 11:53:17;;;;;;;8.70;4.60;;;;;;;21.56;47.43;98990.03;5032500;28;20030;-82
2022/05/02 11:55:46;;;;;;;6.38;5.07;;;;;;;21.46;47.94;98995.78;4997914;28;20041;-82
2022/05/02 11:58:15;;;;;;;4.65;4.22;;;;;;;21.36;48.30;98991.44;5011201;28;20023;-82
2022/05/02 12:00:43;;;;;;;35.40;7.88;;;;;;;21.23;47.78;98986.13;5030668;28;20069;-82
2022/05/02 12:03:16;;;;;;;14.52;6.25;;;;;;;21.36;46.40;98979.78;5011030;28;20538;-82
2022/05/02 12:05:55;;;;;;;7.43;5.30;;;;;;;21.54;45.96;98975.97;5007743;28;20124;-82
2022/05/02 12:08:32;;;;;;;11.77;5.40;;;;;;;21.55;46.40;98977.59;5007869;28;20041;-81
2022/05/02 12:11:08;;;;;;;9.05;5.07;;;;;;;21.60;46.32;98974.72;5006284;28;20030;-81
2022/05/02 12:13:36;;;;;;;10.00;5.13;;;;;;;21.73;46.68;98979.22;5011097;28;20069;-81
2022/05/02 12:16:13;;;;;;;12.57;5.68;;;;;;;21.87;46.07;98982.63;4986578;28;20075;-81
2022/05/02 12:18:45;;;;;;;5.22;4.72;;;;;;;22.10;45.91;98975.13;5008135;28;20044;-81
2022/05/02 12:21:29;;;;;;;9.27;4.40;;;;;;;22.21;45.76;98968.22;5002999;28;20026;-81
2022/05/02 12:23:56;;;;;;;7.97;6.20;;;;;;;22.39;44.32;98967.88;4996943;28;20048;-81